createdAt,value
2017-05-05T00:01:02.937Z,620.64
2017-05-05T00:03:32.191Z,618.92
2017-05-05T00:06:01.474Z,625.40
2017-05-05T00:08:30.895Z,618.52
2017-05-05T00:11:00.168Z,610.96
2017-05-05T00:13:30.203Z,620.06
2017-05-05T00:15:59.448Z,607.16
2017-05-05T00:18:29.433Z,660.56
2017-05-05T00:20:58.656Z,620.40
2017-05-05T00:23:28.005Z,623.36
2017-05-05T00:25:57.958Z,610.12
2017-05-05T00:28:28.208Z,610.42
2017-05-05T00:30:58.245Z,617.38
2017-05-05T00:33:27.267Z,598.94
2017-05-05T00:35:56.550Z,609.54
2017-05-05T00:38:27.268Z,600.32
2017-05-05T00:40:57.356Z,608.08
2017-05-05T00:43:26.570Z,590.84
2017-05-05T00:45:56.668Z,601.30
2017-05-05T00:48:26.584Z,590.14
2017-05-05T00:50:55.953Z,607.16
2017-05-05T00:53:25.322Z,602.60
2017-05-05T00:55:54.601Z,601.56
2017-05-05T00:58:23.840Z,592.44
2017-05-05T01:00:53.132Z,611.82
2017-05-05T01:03:22.372Z,599.62
2017-05-05T01:05:52.388Z,595.18
2017-05-05T01:08:22.405Z,599.36
2017-05-05T01:10:51.683Z,608.74
2017-05-05T01:13:21.687Z,583.06
2017-05-05T01:15:50.907Z,582.78
2017-05-05T01:18:20.204Z,598.04
2017-05-05T01:20:50.272Z,582.36
2017-05-05T01:23:20.338Z,596.14
2017-05-05T01:25:50.375Z,591.56
2017-05-05T01:28:19.628Z,580.20
2017-05-05T01:30:48.860Z,588.80
2017-05-05T01:33:18.124Z,583.44
2017-05-05T01:35:48.166Z,587.06
2017-05-05T01:38:18.218Z,572.46
2017-05-05T01:40:48.928Z,571.62
2017-05-05T01:43:18.184Z,578.64
2017-05-05T01:45:47.457Z,567.86
2017-05-05T01:48:17.456Z,576.02
2017-05-05T01:50:47.466Z,569.78
2017-05-05T01:53:18.339Z,577.24
2017-05-05T01:55:47.595Z,571.06
2017-05-05T01:58:16.944Z,577.44
2017-05-05T02:00:46.186Z,561.38
2017-05-05T02:03:15.548Z,572.24
2017-05-05T02:05:46.280Z,569.24
2017-05-05T02:08:15.557Z,565.22
2017-05-05T02:10:44.765Z,554.54
2017-05-05T02:13:14.039Z,563.12
2017-05-05T02:15:43.280Z,557.42
2017-05-05T02:18:15.512Z,561.34
2017-05-05T02:20:45.491Z,565.54
2017-05-05T02:23:15.499Z,559.36
2017-05-05T02:25:45.522Z,560.64
2017-05-05T02:28:15.556Z,563.62
2017-05-05T02:30:44.792Z,558.34
2017-05-05T02:33:14.044Z,548.06
2017-05-05T02:35:43.337Z,558.34
2017-05-05T02:38:12.575Z,560.60
2017-05-05T02:40:42.044Z,554.60
2017-05-05T02:43:11.267Z,556.96
2017-05-05T02:45:40.539Z,545.50
2017-05-05T02:48:10.554Z,544.00
2017-05-05T02:50:40.585Z,548.04
2017-05-05T02:53:09.829Z,549.40
2017-05-05T02:55:39.208Z,551.58
2017-05-05T02:58:09.288Z,537.42
2017-05-05T03:00:38.565Z,546.18
2017-05-05T03:03:08.635Z,532.24
2017-05-05T03:05:38.683Z,541.32
2017-05-05T03:08:08.026Z,544.36
2017-05-05T03:10:38.792Z,544.62
2017-05-05T03:13:08.023Z,538.54
2017-05-05T03:15:38.083Z,524.66
2017-05-05T03:18:07.342Z,537.14
2017-05-05T03:20:37.326Z,525.08
2017-05-05T03:23:06.568Z,523.86
2017-05-05T03:25:36.539Z,539.66
2017-05-05T03:28:05.984Z,527.34
2017-05-05T03:30:36.007Z,534.56
2017-05-05T03:33:06.151Z,522.02
2017-05-05T03:35:35.373Z,537.46
2017-05-05T03:38:04.685Z,531.98
2017-05-05T03:40:33.924Z,524.76
2017-05-05T03:43:03.194Z,514.76
2017-05-05T03:45:33.856Z,523.58
2017-05-05T03:48:03.103Z,531.90
2017-05-05T03:50:33.092Z,525.60
2017-05-05T03:53:02.328Z,518.68
2017-05-05T03:55:31.579Z,525.78
2017-05-05T03:58:01.196Z,522.24
2017-05-05T04:00:31.238Z,517.60
2017-05-05T04:03:00.472Z,517.42
2017-05-05T04:05:30.529Z,527.18
2017-05-05T04:07:59.759Z,507.70
2017-05-05T04:10:29.145Z,512.70
2017-05-05T04:12:59.060Z,506.82
2017-05-05T04:15:28.356Z,503.66
2017-05-05T04:17:57.587Z,507.18
2017-05-05T04:20:27.619Z,523.78
2017-05-05T04:22:57.636Z,517.30
2017-05-05T04:25:27.667Z,517.14
2017-05-05T04:27:56.980Z,511.36
2017-05-05T04:30:27.668Z,512.58
2017-05-05T04:32:57.980Z,497.18
2017-05-05T04:35:27.212Z,499.60
2017-05-05T04:37:57.125Z,520.14
2017-05-05T04:40:27.221Z,497.74
2017-05-05T04:42:57.247Z,498.40
2017-05-05T04:45:27.242Z,496.68
2017-05-05T04:47:56.605Z,500.22
2017-05-05T04:50:26.503Z,496.74
2017-05-05T04:52:55.760Z,484.46
2017-05-05T04:55:25.091Z,490.74
2017-05-05T04:57:54.336Z,492.68
2017-05-05T05:00:23.576Z,482.32
2017-05-05T05:02:53.621Z,487.58
2017-05-05T05:05:22.863Z,485.72
2017-05-05T05:07:52.134Z,486.84
2017-05-05T05:10:21.377Z,491.50
2017-05-05T05:12:50.794Z,495.88
2017-05-05T05:15:20.050Z,479.36
2017-05-05T05:17:49.265Z,487.54
2017-05-05T05:20:19.191Z,475.36
2017-05-05T05:22:49.304Z,486.10
2017-05-05T05:25:19.329Z,476.90
2017-05-05T05:27:49.394Z,489.32
2017-05-05T05:30:18.624Z,484.38
2017-05-05T05:32:47.891Z,467.82
2017-05-05T05:35:17.135Z,471.40
2017-05-05T05:37:47.367Z,470.50
2017-05-05T05:40:17.393Z,474.80
2017-05-05T05:42:46.678Z,471.28
2017-05-05T05:45:16.730Z,468.36
2017-05-05T05:47:46.176Z,474.80
2017-05-05T05:50:15.445Z,468.22
2017-05-05T05:52:44.707Z,466.96
2017-05-05T05:55:13.955Z,469.72
2017-05-05T05:57:43.226Z,477.52
2017-05-05T06:00:13.259Z,469.30
2017-05-05T06:02:42.512Z,470.08
2017-05-05T06:05:11.800Z,459.22
2017-05-05T06:07:41.933Z,453.78
2017-05-05T06:10:11.192Z,461.02
2017-05-05T06:12:40.408Z,454.84
2017-05-05T06:15:10.430Z,450.88
2017-05-05T06:17:40.412Z,454.46
2017-05-05T06:20:09.830Z,464.24
2017-05-05T06:22:39.215Z,455.80
2017-05-05T06:25:09.225Z,454.50
2017-05-05T06:27:39.222Z,458.12
2017-05-05T06:30:08.476Z,439.08
2017-05-05T06:32:38.468Z,450.24
2017-05-05T06:35:08.704Z,445.36
2017-05-05T06:37:37.942Z,435.58
2017-05-05T06:40:07.209Z,458.62
2017-05-05T06:42:37.228Z,452.00
2017-05-05T06:45:06.607Z,444.36
2017-05-05T06:47:35.868Z,449.18
2017-05-05T06:50:05.775Z,446.12
2017-05-05T06:52:35.075Z,450.48
2017-05-05T06:55:05.221Z,446.00
2017-05-05T06:57:34.658Z,439.58
2017-05-05T07:00:04.820Z,438.80
2017-05-05T07:02:34.074Z,440.36
2017-05-05T07:05:04.112Z,435.40
2017-05-05T07:07:33.380Z,437.30
2017-05-05T07:10:03.529Z,427.58
2017-05-05T07:12:32.792Z,438.58
2017-05-05T07:15:02.793Z,437.38
2017-05-05T07:17:32.096Z,437.12
2017-05-05T07:20:01.600Z,430.94
2017-05-05T07:22:30.839Z,433.40
2017-05-05T07:25:00.872Z,427.62
2017-05-05T07:27:30.367Z,428.90
2017-05-05T07:29:59.636Z,426.32
2017-05-05T07:32:29.637Z,427.74
2017-05-05T07:34:58.912Z,431.32
2017-05-05T07:37:28.885Z,426.72
2017-05-05T07:39:58.224Z,419.52
2017-05-05T07:42:28.429Z,414.94
2017-05-05T07:44:58.574Z,414.38
2017-05-05T07:47:28.668Z,419.16
2017-05-05T07:49:59.383Z,420.44
2017-05-05T07:52:29.419Z,408.68
2017-05-05T07:54:59.404Z,415.82
2017-05-05T07:57:28.980Z,413.40
2017-05-05T07:59:58.289Z,429.70
2017-05-05T08:02:28.328Z,200.10
2017-05-05T08:04:58.388Z,192.14
2017-05-05T08:07:28.485Z,177.10
2017-05-05T08:09:57.795Z,170.20
2017-05-05T08:12:27.121Z,159.36
2017-05-05T08:14:56.386Z,190.28
2017-05-05T08:17:25.625Z,544.58
2017-05-05T08:19:55.633Z,618.78
2017-05-05T08:22:25.648Z,495.22
2017-05-05T08:24:54.899Z,438.34
2017-05-05T08:27:24.941Z,394.32
2017-05-05T08:29:54.183Z,360.60
2017-05-05T08:32:24.222Z,329.82
2017-05-05T08:34:54.211Z,271.38
2017-05-05T08:37:23.482Z,228.42
2017-05-05T08:39:52.789Z,232.36
2017-05-05T08:42:22.010Z,182.54
2017-05-05T08:44:52.002Z,184.70
2017-05-05T08:47:21.332Z,168.64
2017-05-05T08:49:51.382Z,158.10
2017-05-05T08:52:20.618Z,142.82
2017-05-05T08:54:50.628Z,138.72
2017-05-05T08:57:19.891Z,217.40
2017-05-05T08:59:49.981Z,431.84
2017-05-05T09:02:20.069Z,308.30
2017-05-05T09:04:49.388Z,299.08
2017-05-05T09:07:18.830Z,225.18
2017-05-05T09:09:48.181Z,289.06
2017-05-05T09:12:17.467Z,243.40
2017-05-05T09:14:47.604Z,731.32
2017-05-05T09:17:17.840Z,628.28
2017-05-05T09:19:47.860Z,515.52
2017-05-05T09:22:18.888Z,484.94
2017-05-05T09:24:48.944Z,373.56
2017-05-05T09:27:18.979Z,363.94
2017-05-05T09:29:48.269Z,251.28
2017-05-05T09:32:17.523Z,258.96
2017-05-05T09:34:46.849Z,246.32
2017-05-05T09:37:16.097Z,218.46
2017-05-05T09:39:46.115Z,183.86
2017-05-05T09:42:15.330Z,190.82
2017-05-05T09:44:44.671Z,186.18
2017-05-05T09:47:14.745Z,201.88
2017-05-05T09:49:44.013Z,160.06
2017-05-05T09:52:13.956Z,160.66
2017-05-05T09:54:43.362Z,154.42
2017-05-05T09:57:13.524Z,134.50
2017-05-05T09:59:43.542Z,130.16
2017-05-05T10:02:12.888Z,127.08
2017-05-05T10:04:42.215Z,134.54
2017-05-05T10:07:12.438Z,126.62
2017-05-05T10:09:42.629Z,133.48
2017-05-05T10:12:12.808Z,113.62
2017-05-05T10:14:42.276Z,116.72
2017-05-05T10:17:12.722Z,410.62
2017-05-05T10:19:41.998Z,213.80
2017-05-05T10:22:12.070Z,234.48
2017-05-05T10:24:41.311Z,205.00
2017-05-05T10:27:12.171Z,191.56
2017-05-05T10:29:41.423Z,153.58
2017-05-05T10:32:10.703Z,163.78
2017-05-05T10:34:40.059Z,138.28
2017-05-05T10:37:10.159Z,132.92
2017-05-05T10:39:40.294Z,123.26
2017-05-05T10:42:10.278Z,134.10
2017-05-05T10:44:39.583Z,118.48
2017-05-05T10:47:08.826Z,112.36
2017-05-05T10:49:38.133Z,108.24
2017-05-05T10:52:07.629Z,108.72
2017-05-05T10:54:37.809Z,101.48
2017-05-05T10:57:07.038Z,107.08
2017-05-05T10:59:36.339Z,100.74
2017-05-05T11:02:05.581Z,105.50
2017-05-05T11:04:34.954Z,106.00
2017-05-05T11:07:04.200Z,105.36
2017-05-05T11:09:34.332Z,104.60
2017-05-05T11:12:04.393Z,245.24
2017-05-05T11:14:33.767Z,866.30
2017-05-05T11:17:03.855Z,782.54
2017-05-05T11:19:33.983Z,748.42
2017-05-05T11:22:03.970Z,676.76
2017-05-05T11:24:33.769Z,615.02
2017-05-05T11:27:03.095Z,563.50
2017-05-05T11:29:32.367Z,492.74
2017-05-05T11:32:01.638Z,522.70
2017-05-05T11:34:30.887Z,483.30
2017-05-05T11:37:00.172Z,457.38
2017-05-05T11:39:29.505Z,450.74
2017-05-05T11:41:59.618Z,558.48
2017-05-05T11:44:29.566Z,525.80
2017-05-05T11:46:58.971Z,494.64
2017-05-05T11:49:29.011Z,493.34
2017-05-05T11:51:58.403Z,690.56
2017-05-05T11:54:27.696Z,719.20
2017-05-05T11:56:57.113Z,678.46
2017-05-05T11:59:26.375Z,641.36
2017-05-05T12:01:56.483Z,607.14
2017-05-05T12:04:26.623Z,576.10
2017-05-05T12:06:55.866Z,558.32
2017-05-05T12:09:25.308Z,521.00
2017-05-05T12:11:54.632Z,503.84
2017-05-05T12:14:23.981Z,485.84
2017-05-05T12:16:53.263Z,461.40
2017-05-05T12:19:22.671Z,440.60
2017-05-05T12:21:52.626Z,430.26
2017-05-05T12:24:22.634Z,405.20
2017-05-05T12:26:51.871Z,389.00
2017-05-05T12:29:21.098Z,400.86
2017-05-05T12:31:51.128Z,362.24
2017-05-05T12:34:20.364Z,357.06
2017-05-05T12:36:49.657Z,349.78
2017-05-05T12:39:19.673Z,345.62
2017-05-05T12:41:49.859Z,332.04
2017-05-05T12:44:19.179Z,324.54
2017-05-05T12:46:49.198Z,315.52
2017-05-05T12:49:19.206Z,308.68
2017-05-05T12:51:49.260Z,318.18
2017-05-05T12:54:18.514Z,296.18
2017-05-05T12:56:48.589Z,309.28
2017-05-05T12:59:17.853Z,314.56
2017-05-05T13:01:48.639Z,317.22
2017-05-05T13:04:18.663Z,306.94
2017-05-05T13:06:47.828Z,319.60
2017-05-05T13:09:17.816Z,320.32
2017-05-05T13:11:47.159Z,314.76
2017-05-05T13:14:16.470Z,308.90
2017-05-05T13:16:45.755Z,310.92
2017-05-05T13:19:15.003Z,301.26
2017-05-05T13:21:46.445Z,298.36
2017-05-05T13:24:16.500Z,298.32
2017-05-05T13:26:45.741Z,287.46
2017-05-05T13:29:15.034Z,296.32
2017-05-05T13:31:44.277Z,289.78
2017-05-05T13:34:13.551Z,281.52
2017-05-05T13:36:43.576Z,277.08
2017-05-05T13:39:13.600Z,284.06
2017-05-05T13:41:44.272Z,264.44
2017-05-05T13:44:15.021Z,261.74
2017-05-05T13:46:45.776Z,272.86
2017-05-05T13:49:15.929Z,265.36
2017-05-05T13:51:45.282Z,272.64
2017-05-05T13:54:14.652Z,245.04
2017-05-05T13:56:44.091Z,224.88
2017-05-05T13:59:13.626Z,202.96
2017-05-05T14:01:43.631Z,175.22
2017-05-05T14:04:13.642Z,159.78
2017-05-05T14:06:43.868Z,145.90
2017-05-05T14:09:13.869Z,130.66
2017-05-05T14:11:43.792Z,141.58
2017-05-05T14:14:13.811Z,242.44
2017-05-05T14:16:43.836Z,210.72
2017-05-05T14:19:13.861Z,208.76
2017-05-05T14:21:43.108Z,226.74
2017-05-05T14:24:12.438Z,289.14
2017-05-05T14:26:42.486Z,322.78
2017-05-05T14:29:11.877Z,295.96
2017-05-05T14:31:41.931Z,271.20
2017-05-05T14:34:11.245Z,324.56
2017-05-05T14:36:40.463Z,212.78
2017-05-05T14:39:10.502Z,160.70
2017-05-05T14:41:40.503Z,122.46
2017-05-05T14:44:10.583Z,113.94
2017-05-05T14:46:39.837Z,108.28
2017-05-05T14:49:09.077Z,101.70
2017-05-05T14:51:39.160Z,103.98
2017-05-05T14:54:08.414Z,105.32
2017-05-05T14:56:39.094Z,96.98
2017-05-05T14:59:08.329Z,107.66
2017-05-05T15:01:37.585Z,98.18
2017-05-05T15:04:06.889Z,103.10
2017-05-05T15:06:36.158Z,104.86
2017-05-05T15:09:06.150Z,104.84
2017-05-05T15:11:35.427Z,96.66
2017-05-05T15:14:04.857Z,102.40
2017-05-05T15:16:35.087Z,98.38
2017-05-05T15:19:05.132Z,99.18
2017-05-05T15:21:34.354Z,97.94
2017-05-05T15:24:04.394Z,148.96
2017-05-05T15:26:35.152Z,690.96
2017-05-05T15:29:05.258Z,271.96
2017-05-05T15:31:34.509Z,190.48
2017-05-05T15:34:04.865Z,142.14
2017-05-05T15:36:34.915Z,115.00
2017-05-05T15:39:04.706Z,101.46
2017-05-05T15:41:33.924Z,99.82
2017-05-05T15:44:04.225Z,99.54
2017-05-05T15:46:33.582Z,98.14
2017-05-05T15:49:03.061Z,98.50
2017-05-05T15:51:32.298Z,98.52
2017-05-05T15:54:01.563Z,120.18
2017-05-05T15:56:30.785Z,165.78
2017-05-05T15:59:00.840Z,175.60
2017-05-05T16:01:30.610Z,185.28
2017-05-05T16:04:00.674Z,200.78
2017-05-05T16:06:29.904Z,156.28
2017-05-05T16:08:59.442Z,168.38
2017-05-05T16:11:28.709Z,148.14
2017-05-05T16:13:59.383Z,126.00
2017-05-05T16:16:28.781Z,131.42
2017-05-05T16:18:58.019Z,129.76
2017-05-05T16:21:28.056Z,118.52
2017-05-05T16:23:58.105Z,121.38
2017-05-05T16:26:28.167Z,114.68
2017-05-05T16:28:58.141Z,119.82
2017-05-05T16:31:28.225Z,118.32
2017-05-05T16:33:57.468Z,122.20
2017-05-05T16:36:26.735Z,115.70
2017-05-05T16:38:56.374Z,117.20
2017-05-05T16:41:25.606Z,114.80
2017-05-05T16:43:55.624Z,117.84
2017-05-05T16:46:25.655Z,216.38
2017-05-05T16:48:54.976Z,361.24
2017-05-05T16:51:24.248Z,327.64
2017-05-05T16:53:54.271Z,429.70
2017-05-05T16:56:24.223Z,349.14
2017-05-05T16:58:54.241Z,371.14
2017-05-05T17:01:24.415Z,402.50
2017-05-05T17:03:53.794Z,318.86
2017-05-05T17:06:23.849Z,260.64
2017-05-05T17:08:53.862Z,331.70
2017-05-05T17:11:23.126Z,295.26
2017-05-05T17:13:52.380Z,269.54
2017-05-05T17:16:21.694Z,228.16
2017-05-05T17:18:50.943Z,248.64
2017-05-05T17:21:20.183Z,205.10
2017-05-05T17:23:49.456Z,230.98
2017-05-05T17:26:18.911Z,486.80
2017-05-05T17:28:48.179Z,437.78
2017-05-05T17:31:17.550Z,485.88
2017-05-05T17:33:46.865Z,387.28
2017-05-05T17:36:17.803Z,421.06
2017-05-05T17:38:47.848Z,402.10
2017-05-05T17:41:17.832Z,435.34
2017-05-05T17:43:47.158Z,442.90
2017-05-05T17:46:16.398Z,454.98
2017-05-05T17:48:46.423Z,427.86
2017-05-05T17:51:16.579Z,420.88
2017-05-05T17:53:46.640Z,325.16
2017-05-05T17:56:15.902Z,337.00
2017-05-05T17:58:45.374Z,341.38
2017-05-05T18:01:14.610Z,323.12
2017-05-05T18:03:43.939Z,295.16
2017-05-05T18:06:13.941Z,325.26
2017-05-05T18:08:44.132Z,279.92
2017-05-05T18:11:14.329Z,253.90
2017-05-05T18:13:44.397Z,257.86
2017-05-05T18:16:15.526Z,165.54
2017-05-05T18:18:44.811Z,141.64
2017-05-05T18:21:14.039Z,128.28
2017-05-05T18:23:43.321Z,113.46
2017-05-05T18:26:12.581Z,110.32
2017-05-05T18:28:41.969Z,97.38
2017-05-05T18:31:11.969Z,111.36
2017-05-05T18:33:41.981Z,111.30
2017-05-05T18:36:11.233Z,111.52
2017-05-05T18:38:40.274Z,329.96
2017-05-05T18:41:10.298Z,283.54
2017-05-05T18:43:40.288Z,213.10
2017-05-05T18:46:09.712Z,197.08
2017-05-05T18:48:39.100Z,163.82
2017-05-05T18:51:08.359Z,147.12
2017-05-05T18:53:37.638Z,132.78
2017-05-05T18:56:08.395Z,121.20
2017-05-05T18:58:37.755Z,112.56
2017-05-05T19:01:07.762Z,109.42
2017-05-05T19:03:37.048Z,110.32
2017-05-05T19:06:07.170Z,104.44
2017-05-05T19:08:37.204Z,104.76
2017-05-05T19:11:06.465Z,107.02
2017-05-05T19:13:36.459Z,126.12
2017-05-05T19:16:05.720Z,132.10
2017-05-05T19:18:34.989Z,121.52
2017-05-05T19:21:04.291Z,114.98
2017-05-05T19:23:33.663Z,110.50
2017-05-05T19:26:03.878Z,111.54
2017-05-05T19:28:33.811Z,113.66
2017-05-05T19:31:03.169Z,110.24
2017-05-05T19:33:32.382Z,107.94
2017-05-05T19:36:02.370Z,124.38
2017-05-05T19:38:31.668Z,130.38
2017-05-05T19:41:02.314Z,142.00
2017-05-05T19:43:31.729Z,149.50
2017-05-05T19:46:01.751Z,145.82
2017-05-05T19:48:31.104Z,146.74
2017-05-05T19:51:01.066Z,150.64
2017-05-05T19:53:30.421Z,149.96
2017-05-05T19:55:59.706Z,144.22
2017-05-05T19:58:28.978Z,142.66
2017-05-05T20:00:58.217Z,143.24
2017-05-05T20:03:28.481Z,140.64
2017-05-05T20:05:57.784Z,133.40
2017-05-05T20:08:27.089Z,137.42
2017-05-05T20:10:56.492Z,140.62
2017-05-05T20:13:25.760Z,137.58
2017-05-05T20:15:55.928Z,135.08
2017-05-05T20:18:26.713Z,136.78
2017-05-05T20:20:56.113Z,135.38
2017-05-05T20:23:25.386Z,131.30
2017-05-05T20:25:57.418Z,135.36
2017-05-05T20:28:26.850Z,133.08
2017-05-05T20:30:57.008Z,130.42
2017-05-05T20:33:27.095Z,134.60
2017-05-05T20:35:57.135Z,135.64
2017-05-05T20:38:27.122Z,128.84
2017-05-05T20:40:57.092Z,130.74
2017-05-05T20:43:26.382Z,131.66
2017-05-05T20:45:56.424Z,127.52
2017-05-05T20:48:25.694Z,130.74
2017-05-05T20:50:54.981Z,128.32
2017-05-05T20:53:25.864Z,133.36
2017-05-05T20:55:56.058Z,130.36
2017-05-05T20:58:26.121Z,131.48
2017-05-05T21:00:56.162Z,130.22
2017-05-05T21:03:26.191Z,126.70
2017-05-05T21:05:55.500Z,128.32
2017-05-05T21:08:24.755Z,132.00
2017-05-05T21:10:55.268Z,127.98
2017-05-05T21:13:24.585Z,129.82
2017-05-05T21:15:55.262Z,129.64
2017-05-05T21:18:25.159Z,125.16
2017-05-05T21:20:54.435Z,123.18
2017-05-05T21:23:24.473Z,134.88
2017-05-05T21:25:53.780Z,754.42
2017-05-05T21:28:24.707Z,510.66
2017-05-05T21:30:53.980Z,392.46
2017-05-05T21:33:24.052Z,325.76
2017-05-05T21:35:53.995Z,281.08
2017-05-05T21:38:23.245Z,276.84
2017-05-05T21:40:53.362Z,268.94
2017-05-05T21:43:23.542Z,238.58
2017-05-05T21:45:53.684Z,222.76
2017-05-05T21:48:23.795Z,204.40
2017-05-05T21:50:53.961Z,223.28
2017-05-05T21:53:23.416Z,209.58
2017-05-05T21:55:52.697Z,208.34
2017-05-05T21:58:23.006Z,233.54
2017-05-05T22:00:53.724Z,237.30
2017-05-05T22:03:24.487Z,233.54
2017-05-05T22:05:54.474Z,230.36
2017-05-05T22:08:25.172Z,226.66
2017-05-05T22:10:55.328Z,229.80
2017-05-05T22:13:24.643Z,232.16
2017-05-05T22:15:54.569Z,228.54
2017-05-05T22:18:23.815Z,221.28
2017-05-05T22:20:54.536Z,218.86
2017-05-05T22:23:23.957Z,218.42
2017-05-05T22:25:55.254Z,207.24
2017-05-05T22:28:24.513Z,214.02
2017-05-05T22:30:53.791Z,211.90
2017-05-05T22:33:23.006Z,213.52
2017-05-05T22:35:52.297Z,212.00
2017-05-05T22:38:21.571Z,213.58
2017-05-05T22:40:50.898Z,210.80
2017-05-05T22:43:20.224Z,201.96
2017-05-05T22:45:49.479Z,200.40
2017-05-05T22:48:18.707Z,196.78
2017-05-05T22:50:49.049Z,195.44
2017-05-05T22:53:19.053Z,189.52
2017-05-05T22:55:49.167Z,200.60
2017-05-05T22:58:18.380Z,193.28
2017-05-05T23:00:48.543Z,187.06
2017-05-05T23:03:17.802Z,185.96
2017-05-05T23:05:47.842Z,189.80
2017-05-05T23:08:17.155Z,183.52
2017-05-05T23:10:46.413Z,181.48
2017-05-05T23:13:15.660Z,192.44
2017-05-05T23:15:44.949Z,181.40
2017-05-05T23:18:14.155Z,184.08
2017-05-05T23:20:44.178Z,180.90
2017-05-05T23:23:14.196Z,187.80
2017-05-05T23:25:44.281Z,180.32
2017-05-05T23:28:13.575Z,173.62
2017-05-05T23:30:42.853Z,173.74
2017-05-05T23:33:12.100Z,176.54
2017-05-05T23:35:41.645Z,173.22
2017-05-05T23:38:11.054Z,175.22
2017-05-05T23:40:41.834Z,175.80
2017-05-05T23:43:11.153Z,180.88
2017-05-05T23:45:40.522Z,184.52
2017-05-05T23:48:09.874Z,290.38
2017-05-05T23:50:39.171Z,306.66
2017-05-05T23:53:08.398Z,264.46
2017-05-05T23:55:38.501Z,209.74
2017-05-05T23:58:07.750Z,170.40
